createdAt,value
2023-03-25T00:02:23.390Z,15.43
2023-03-25T00:04:51.702Z,15.46
2023-03-25T00:07:20.040Z,15.48
2023-03-25T00:09:47.866Z,15.50
2023-03-25T00:12:16.959Z,15.49
2023-03-25T00:14:54.599Z,15.48
2023-03-25T00:17:23.557Z,15.49
2023-03-25T00:19:52.810Z,15.52
2023-03-25T00:22:19.501Z,15.53
2023-03-25T00:24:46.439Z,15.55
2023-03-25T00:27:14.442Z,15.56
2023-03-25T00:29:42.298Z,15.56
2023-03-25T00:32:09.251Z,15.57
2023-03-25T00:34:41.971Z,15.61
2023-03-25T00:37:09.473Z,15.63
2023-03-25T00:39:38.051Z,15.67
2023-03-25T00:42:05.274Z,15.68
2023-03-25T00:44:32.529Z,15.69
2023-03-25T00:46:59.258Z,15.70
2023-03-25T00:49:28.606Z,15.69
2023-03-25T00:51:56.558Z,15.71
2023-03-25T00:54:24.311Z,15.73
2023-03-25T00:56:52.852Z,15.76
2023-03-25T00:59:19.800Z,15.77
2023-03-25T01:01:46.398Z,15.77
2023-03-25T01:04:13.199Z,15.78
2023-03-25T01:06:44.347Z,15.76
2023-03-25T01:09:14.076Z,15.74
2023-03-25T01:11:44.029Z,15.70
2023-03-25T01:14:17.124Z,15.69
2023-03-25T01:16:44.696Z,15.69
2023-03-25T01:19:12.258Z,15.66
2023-03-25T01:21:38.825Z,15.65
2023-03-25T01:24:07.199Z,15.61
2023-03-25T01:26:34.414Z,15.59
2023-03-25T01:29:00.950Z,15.55
2023-03-25T01:31:30.294Z,15.55
2023-03-25T01:33:57.967Z,15.52
2023-03-25T01:36:29.530Z,15.46
2023-03-25T01:38:58.423Z,15.38
2023-03-25T01:41:33.131Z,15.33
2023-03-25T01:44:08.468Z,15.27
2023-03-25T01:46:38.063Z,15.18
2023-03-25T01:49:08.877Z,15.10
2023-03-25T01:51:40.570Z,15.03
2023-03-25T01:54:07.932Z,14.92
2023-03-25T01:56:39.969Z,14.85
2023-03-25T01:59:08.278Z,14.81
2023-03-25T02:01:36.846Z,14.76
2023-03-25T02:04:10.078Z,14.67
2023-03-25T02:06:45.855Z,14.52
2023-03-25T02:09:16.946Z,14.42
2023-03-25T02:11:43.621Z,14.35
2023-03-25T02:14:14.414Z,14.26
2023-03-25T02:17:12.060Z,14.16
2023-03-25T02:20:16.174Z,14.07
2023-03-25T02:23:16.856Z,14.03
2023-03-25T02:26:14.399Z,13.94
2023-03-25T02:28:50.712Z,13.89
2023-03-25T02:31:56.433Z,13.81
2023-03-25T02:34:42.504Z,13.79
2023-03-25T02:37:29.282Z,13.69
2023-03-25T02:40:08.126Z,13.64
2023-03-25T02:42:58.007Z,13.60
2023-03-25T02:45:37.846Z,13.48
2023-03-25T02:48:11.957Z,13.45
2023-03-25T02:50:44.065Z,13.39
2023-03-25T02:53:16.828Z,13.36
2023-03-25T02:55:48.009Z,13.36
2023-03-25T02:58:18.265Z,13.33
2023-03-25T03:00:46.324Z,13.28
2023-03-25T03:03:12.958Z,13.23
2023-03-25T03:05:49.758Z,13.19
2023-03-25T03:08:31.351Z,13.12
2023-03-25T03:11:20.479Z,13.07
2023-03-25T03:14:06.012Z,13.02
2023-03-25T03:17:00.745Z,13.03
2023-03-25T03:19:58.253Z,13.01
2023-03-25T03:23:02.098Z,12.97
2023-03-25T03:25:40.754Z,12.91
2023-03-25T03:28:12.974Z,12.87
2023-03-25T03:31:06.997Z,12.83
2023-03-25T03:33:46.894Z,12.73
2023-03-25T03:36:20.396Z,12.68
2023-03-25T03:38:51.317Z,12.61
2023-03-25T03:41:24.223Z,12.56
2023-03-25T03:43:56.951Z,12.52
2023-03-25T03:46:34.869Z,12.45
2023-03-25T03:49:05.583Z,12.41
2023-03-25T03:51:39.139Z,12.36
2023-03-25T03:54:13.939Z,12.35
2023-03-25T03:56:46.762Z,12.31
2023-03-25T03:59:22.614Z,12.28
2023-03-25T04:01:55.804Z,12.27
2023-03-25T04:04:27.039Z,12.30
2023-03-25T04:07:04.617Z,12.28
2023-03-25T04:10:02.844Z,12.30
2023-03-25T04:12:33.898Z,12.29
2023-03-25T04:15:03.243Z,12.25
2023-03-25T04:17:30.164Z,12.21
2023-03-25T04:19:57.275Z,12.19
2023-03-25T04:22:24.674Z,12.17
2023-03-25T04:24:51.889Z,12.17
2023-03-25T04:27:24.525Z,12.14
2023-03-25T04:29:52.148Z,12.12
2023-03-25T04:32:18.982Z,12.10
2023-03-25T04:34:46.964Z,12.10
2023-03-25T04:37:14.108Z,12.04
2023-03-25T04:39:40.834Z,12.03
2023-03-25T04:42:08.867Z,12.01
2023-03-25T04:44:39.971Z,12.00
2023-03-25T04:47:14.752Z,11.97
2023-03-25T04:49:45.191Z,11.94
2023-03-25T04:52:12.057Z,11.90
2023-03-25T04:54:38.659Z,11.89
2023-03-25T04:57:05.279Z,11.89
2023-03-25T04:59:31.892Z,11.91
2023-03-25T05:01:58.457Z,11.91
2023-03-25T05:04:25.099Z,11.91
2023-03-25T05:06:51.751Z,11.90
2023-03-25T05:09:22.128Z,11.91
2023-03-25T05:11:50.637Z,11.90
2023-03-25T05:14:19.514Z,11.90
2023-03-25T05:16:46.744Z,11.91
2023-03-25T05:19:14.800Z,11.89
2023-03-25T05:21:42.331Z,11.89
2023-03-25T05:24:11.206Z,11.87
2023-03-25T05:26:39.847Z,11.85
2023-03-25T05:29:14.345Z,11.84
2023-03-25T05:31:41.594Z,11.82
2023-03-25T05:34:08.582Z,11.77
2023-03-25T05:36:35.857Z,11.77
2023-03-25T05:39:04.189Z,11.76
2023-03-25T05:41:33.653Z,11.76
2023-03-25T05:44:00.919Z,11.74
2023-03-25T05:46:32.108Z,11.71
2023-03-25T05:49:00.956Z,11.72
2023-03-25T05:51:33.957Z,11.71
2023-03-25T05:54:01.701Z,11.73
2023-03-25T05:56:29.685Z,11.71
2023-03-25T05:58:57.689Z,11.67
2023-03-25T06:01:32.512Z,11.65
2023-03-25T06:04:03.728Z,11.62
2023-03-25T06:06:32.213Z,11.61
2023-03-25T06:08:59.250Z,11.60
2023-03-25T06:11:25.889Z,11.67
2023-03-25T06:13:52.761Z,11.64
2023-03-25T06:16:27.637Z,11.69
2023-03-25T06:18:59.595Z,11.69
2023-03-25T06:21:32.949Z,11.70
2023-03-25T06:24:01.365Z,11.68
2023-03-25T06:26:28.183Z,11.72
2023-03-25T06:28:54.889Z,11.66
2023-03-25T06:31:27.751Z,11.67
2023-03-25T06:33:56.058Z,11.68
2023-03-25T06:36:25.308Z,11.71
2023-03-25T06:38:52.143Z,11.73
2023-03-25T06:41:25.726Z,11.76
2023-03-25T06:43:52.571Z,11.78
2023-03-25T06:46:19.217Z,11.81
2023-03-25T06:48:47.273Z,11.91
2023-03-25T06:51:13.805Z,11.93
2023-03-25T06:53:40.521Z,11.93
2023-03-25T06:56:07.497Z,11.94
2023-03-25T06:58:37.297Z,12.00
2023-03-25T07:01:07.545Z,12.04
2023-03-25T07:03:36.466Z,12.12
2023-03-25T07:06:04.518Z,12.19
2023-03-25T07:08:31.749Z,12.24
2023-03-25T07:11:02.778Z,12.29
2023-03-25T07:13:31.185Z,12.36
2023-03-25T07:15:58.730Z,12.45
2023-03-25T07:18:25.583Z,12.52
2023-03-25T07:20:52.166Z,12.57
2023-03-25T07:23:18.700Z,12.60
2023-03-25T07:25:45.457Z,12.66
2023-03-25T07:28:12.076Z,12.73
2023-03-25T07:30:38.781Z,12.81
2023-03-25T07:33:05.391Z,12.87
2023-03-25T07:35:32.078Z,12.92
2023-03-25T07:37:58.678Z,12.96
2023-03-25T07:40:25.398Z,13.02
2023-03-25T07:42:51.949Z,13.04
2023-03-25T07:45:18.509Z,13.07
2023-03-25T07:47:50.258Z,13.16
2023-03-25T07:50:24.418Z,13.26
2023-03-25T07:52:51.835Z,13.37
2023-03-25T07:55:18.411Z,13.50
2023-03-25T07:57:45.623Z,13.62
2023-03-25T08:00:12.963Z,13.78
2023-03-25T08:02:39.770Z,13.96
2023-03-25T08:05:07.016Z,14.18
2023-03-25T08:07:34.121Z,14.42
2023-03-25T08:10:00.730Z,14.68
2023-03-25T08:12:27.421Z,14.83
2023-03-25T08:14:53.951Z,15.12
2023-03-25T08:17:23.136Z,15.28
2023-03-25T08:19:49.946Z,15.37
2023-03-25T08:22:16.492Z,15.32
2023-03-25T08:24:43.043Z,15.35
2023-03-25T08:27:15.233Z,15.32
2023-03-25T08:29:43.886Z,15.28
2023-03-25T08:32:10.715Z,15.23
2023-03-25T08:34:39.941Z,15.23
2023-03-25T08:37:11.188Z,15.27
2023-03-25T08:39:40.196Z,15.36
2023-03-25T08:42:07.911Z,15.52
2023-03-25T08:44:35.518Z,15.74
2023-03-25T08:47:02.421Z,15.90
2023-03-25T08:49:29.121Z,16.03
2023-03-25T08:51:57.949Z,16.17
2023-03-25T08:54:31.060Z,16.22
2023-03-25T08:56:57.648Z,16.23
2023-03-25T08:59:24.183Z,16.16
2023-03-25T09:01:50.791Z,16.17
2023-03-25T09:04:17.406Z,16.22
2023-03-25T09:06:47.720Z,16.31
2023-03-25T09:09:16.494Z,16.36
2023-03-25T09:11:43.378Z,16.41
2023-03-25T09:14:10.273Z,16.47
2023-03-25T09:16:36.808Z,16.43
2023-03-25T09:19:03.573Z,16.48
2023-03-25T09:21:30.627Z,16.66
2023-03-25T09:23:57.247Z,16.71
2023-03-25T09:26:26.092Z,16.83
2023-03-25T09:28:55.529Z,16.85
2023-03-25T09:31:23.917Z,17.06
2023-03-25T09:33:50.616Z,17.12
2023-03-25T09:36:17.206Z,17.22
2023-03-25T09:38:43.823Z,17.34
2023-03-25T09:41:51.119Z,17.43
2023-03-25T09:44:45.027Z,17.47
2023-03-25T09:47:15.130Z,17.54
2023-03-25T09:49:46.069Z,17.62
2023-03-25T09:52:20.682Z,17.64
2023-03-25T09:54:52.400Z,17.75
2023-03-25T09:57:27.138Z,17.90
2023-03-25T09:59:56.398Z,18.02
2023-03-25T10:02:43.772Z,18.16
2023-03-25T10:05:16.151Z,18.16
2023-03-25T10:08:19.744Z,18.07
2023-03-25T10:11:07.995Z,18.03
2023-03-25T10:13:48.701Z,17.89
2023-03-25T10:16:33.984Z,17.69
2023-03-25T10:19:27.581Z,17.51
2023-03-25T10:22:04.703Z,17.36
2023-03-25T10:24:55.605Z,17.25
2023-03-25T10:27:39.852Z,17.16
2023-03-25T10:30:21.435Z,17.25
2023-03-25T10:32:59.626Z,17.55
2023-03-25T10:35:29.683Z,17.83
2023-03-25T10:38:08.715Z,17.96
2023-03-25T10:40:49.959Z,17.81
2023-03-25T10:43:34.309Z,17.73
2023-03-25T10:46:06.141Z,17.56
2023-03-25T10:48:33.756Z,17.42
2023-03-25T10:51:03.532Z,17.34
2023-03-25T10:53:30.646Z,17.25
2023-03-25T10:56:03.613Z,17.24
2023-03-25T10:58:31.739Z,17.26
2023-03-25T11:01:01.578Z,17.25
2023-03-25T11:03:34.530Z,17.25
2023-03-25T11:06:01.695Z,17.27
2023-03-25T11:08:28.356Z,17.26
2023-03-25T11:11:00.419Z,17.23
2023-03-25T11:13:29.579Z,17.13
2023-03-25T11:16:02.565Z,16.99
2023-03-25T11:18:40.664Z,16.87
2023-03-25T11:21:13.522Z,16.84
2023-03-25T11:23:46.457Z,16.81
2023-03-25T11:26:23.705Z,16.85
2023-03-25T11:29:14.138Z,17.19
2023-03-25T11:31:42.678Z,17.34
2023-03-25T11:34:12.314Z,17.49
2023-03-25T11:36:57.924Z,17.55
2023-03-25T11:39:30.189Z,17.61
2023-03-25T11:41:58.782Z,17.66
2023-03-25T11:44:31.147Z,17.49
2023-03-25T11:47:02.645Z,17.34
2023-03-25T11:49:35.270Z,17.15
2023-03-25T11:52:08.125Z,17.06
2023-03-25T11:54:36.897Z,17.13
2023-03-25T11:57:07.416Z,17.24
2023-03-25T11:59:43.059Z,17.37
2023-03-25T12:02:24.690Z,17.49
2023-03-25T12:05:02.933Z,17.38
2023-03-25T12:07:30.045Z,17.33
2023-03-25T12:09:59.193Z,17.07
2023-03-25T12:12:42.532Z,16.96
2023-03-25T12:15:20.536Z,16.76
2023-03-25T12:18:18.193Z,16.69
2023-03-25T12:20:56.631Z,16.55
2023-03-25T12:23:48.827Z,16.46
2023-03-25T12:26:19.949Z,16.40
2023-03-25T12:29:04.813Z,16.40
2023-03-25T12:31:39.946Z,16.36
2023-03-25T12:34:20.675Z,16.38
2023-03-25T12:36:57.103Z,16.48
2023-03-25T12:39:42.106Z,16.75
2023-03-25T12:42:19.249Z,17.06
2023-03-25T12:44:51.410Z,17.37
2023-03-25T12:47:29.245Z,17.75
2023-03-25T12:50:35.344Z,18.27
2023-03-25T12:53:02.017Z,18.86
2023-03-25T12:56:14.207Z,19.08
2023-03-25T12:58:46.881Z,19.00
2023-03-25T13:01:13.549Z,18.92
2023-03-25T13:04:00.526Z,18.76
2023-03-25T13:06:59.194Z,18.44
2023-03-25T13:10:03.831Z,17.98
2023-03-25T13:12:38.129Z,17.44
2023-03-25T13:15:21.796Z,17.20
2023-03-25T13:18:12.085Z,16.87
2023-03-25T13:20:49.680Z,16.80
2023-03-25T13:23:21.921Z,16.75
2023-03-25T13:26:06.413Z,16.76
2023-03-25T13:28:40.243Z,16.74
2023-03-25T13:31:12.951Z,16.67
2023-03-25T13:33:45.713Z,16.68
2023-03-25T13:36:34.299Z,16.83
2023-03-25T13:39:12.110Z,16.82
2023-03-25T13:41:58.887Z,16.82
2023-03-25T13:44:25.449Z,16.89
2023-03-25T13:47:12.386Z,17.04
2023-03-25T13:49:47.249Z,17.33
2023-03-25T13:52:14.880Z,17.50
2023-03-25T13:54:48.430Z,17.94
2023-03-25T13:57:18.280Z,18.37
2023-03-25T13:59:53.669Z,18.49
2023-03-25T14:02:50.055Z,18.33
2023-03-25T14:05:41.293Z,18.39
2023-03-25T14:08:17.526Z,18.18
2023-03-25T14:10:51.244Z,18.13
2023-03-25T14:13:26.655Z,18.12
2023-03-25T14:15:59.898Z,18.06
2023-03-25T14:18:29.005Z,17.98
2023-03-25T14:20:57.972Z,17.82
2023-03-25T14:23:32.061Z,17.65
2023-03-25T14:26:02.905Z,17.44
2023-03-25T14:28:44.391Z,17.31
2023-03-25T14:31:14.059Z,17.21
2023-03-25T14:34:06.748Z,17.01
2023-03-25T14:36:39.464Z,16.85
2023-03-25T14:39:31.647Z,16.78
2023-03-25T14:42:02.537Z,16.74
2023-03-25T14:44:34.467Z,16.70
2023-03-25T14:47:17.092Z,16.67
2023-03-25T14:50:01.615Z,16.57
2023-03-25T14:52:39.368Z,16.58
2023-03-25T14:55:15.243Z,16.46
2023-03-25T14:57:43.538Z,16.36
2023-03-25T15:00:20.974Z,16.26
2023-03-25T15:02:58.569Z,16.14
2023-03-25T15:05:29.379Z,16.03
2023-03-25T15:08:06.616Z,15.94
2023-03-25T15:10:38.289Z,15.80
2023-03-25T15:13:21.566Z,15.67
2023-03-25T15:15:50.315Z,15.54
2023-03-25T15:18:31.943Z,15.48
2023-03-25T15:21:12.547Z,15.46
2023-03-25T15:23:51.722Z,15.43
2023-03-25T15:26:33.187Z,15.47
2023-03-25T15:29:14.694Z,15.53
2023-03-25T15:31:48.396Z,15.70
2023-03-25T15:34:48.880Z,15.99
2023-03-25T15:37:54.911Z,16.44
2023-03-25T15:40:42.561Z,16.57
2023-03-25T15:43:30.529Z,16.57
2023-03-25T15:46:08.504Z,16.47
2023-03-25T15:48:35.022Z,16.43
2023-03-25T15:51:46.934Z,16.31
2023-03-25T15:54:37.895Z,16.26
2023-03-25T15:57:17.191Z,16.26
2023-03-25T16:00:22.163Z,16.40
2023-03-25T16:02:51.339Z,16.84
2023-03-25T16:05:19.914Z,17.52
2023-03-25T16:07:47.143Z,18.19
2023-03-25T16:10:19.210Z,18.70
2023-03-25T16:12:48.773Z,19.17
2023-03-25T16:15:27.146Z,19.61
2023-03-25T16:17:54.467Z,19.95
2023-03-25T16:20:27.675Z,20.02
2023-03-25T16:22:56.450Z,18.97
2023-03-25T16:25:27.964Z,18.20
2023-03-25T16:27:58.077Z,17.61
2023-03-25T16:30:39.861Z,17.22
2023-03-25T16:33:10.564Z,16.72
2023-03-25T16:35:55.143Z,16.50
2023-03-25T16:38:25.401Z,16.19
2023-03-25T16:40:59.546Z,15.92
2023-03-25T16:43:27.530Z,15.76
2023-03-25T16:45:58.620Z,15.61
2023-03-25T16:48:32.222Z,15.43
2023-03-25T16:51:05.665Z,15.18
2023-03-25T16:53:35.153Z,14.97
2023-03-25T16:56:22.834Z,14.84
2023-03-25T16:59:01.446Z,14.69
2023-03-25T17:01:29.461Z,14.51
2023-03-25T17:04:10.466Z,14.36
2023-03-25T17:06:40.042Z,14.25
2023-03-25T17:09:34.043Z,14.13
2023-03-25T17:12:06.447Z,14.01
2023-03-25T17:14:37.608Z,13.93
2023-03-25T17:17:14.463Z,13.84
2023-03-25T17:19:46.325Z,13.75
2023-03-25T17:22:20.408Z,13.64
2023-03-25T17:24:58.378Z,13.55
2023-03-25T17:27:37.109Z,13.48
2023-03-25T17:30:43.079Z,13.28
2023-03-25T17:33:11.729Z,13.19
2023-03-25T17:35:39.969Z,13.13
2023-03-25T17:38:09.006Z,13.02
2023-03-25T17:40:35.688Z,12.92
2023-03-25T17:43:02.357Z,12.81
2023-03-25T17:45:29.531Z,12.72
2023-03-25T17:47:56.772Z,12.61
2023-03-25T17:50:27.529Z,12.50
2023-03-25T17:52:55.086Z,12.40
2023-03-25T17:55:21.967Z,12.30
2023-03-25T17:57:49.879Z,12.15
2023-03-25T18:00:18.609Z,12.03
2023-03-25T18:02:46.713Z,11.97
2023-03-25T18:05:14.722Z,11.89
2023-03-25T18:07:41.497Z,11.77
2023-03-25T18:10:17.036Z,11.72
2023-03-25T18:12:44.647Z,11.65
2023-03-25T18:15:11.654Z,11.59
2023-03-25T18:17:38.580Z,11.51
2023-03-25T18:20:20.017Z,11.44
2023-03-25T18:22:46.774Z,11.33
2023-03-25T18:25:14.281Z,11.21
2023-03-25T18:27:44.237Z,11.06
2023-03-25T18:30:18.861Z,10.95
2023-03-25T18:32:45.904Z,10.86
2023-03-25T18:35:12.493Z,10.76
2023-03-25T18:37:39.113Z,10.67
2023-03-25T18:40:16.733Z,10.52
2023-03-25T18:42:43.377Z,10.46
2023-03-25T18:45:11.374Z,10.39
2023-03-25T18:47:38.114Z,10.28
2023-03-25T18:50:17.745Z,10.11
2023-03-25T18:52:45.550Z,10.03
2023-03-25T18:55:13.321Z,9.96
2023-03-25T18:57:40.119Z,9.92
2023-03-25T19:00:14.933Z,9.93
2023-03-25T19:02:41.576Z,9.89
2023-03-25T19:05:08.532Z,9.86
2023-03-25T19:07:35.118Z,9.85
2023-03-25T19:10:01.677Z,9.85
2023-03-25T19:12:28.223Z,9.85
2023-03-25T19:14:54.824Z,9.82
2023-03-25T19:17:21.701Z,9.75
2023-03-25T19:19:49.629Z,9.72
2023-03-25T19:22:16.359Z,9.70
2023-03-25T19:24:43.676Z,9.65
2023-03-25T19:27:10.286Z,9.49
2023-03-25T19:29:38.011Z,9.42
2023-03-25T19:32:04.757Z,9.43
2023-03-25T19:34:31.440Z,9.46
2023-03-25T19:37:02.743Z,9.49
2023-03-25T19:39:29.759Z,9.49
2023-03-25T19:41:56.377Z,9.49
2023-03-25T19:44:23.214Z,9.46
2023-03-25T19:46:49.842Z,9.46
2023-03-25T19:49:22.993Z,9.44
2023-03-25T19:51:59.365Z,9.42
2023-03-25T19:54:25.960Z,9.43
2023-03-25T19:56:52.620Z,9.42
2023-03-25T19:59:19.212Z,9.38
2023-03-25T20:01:45.875Z,9.40
2023-03-25T20:04:14.481Z,9.44
2023-03-25T20:06:42.045Z,9.50
2023-03-25T20:09:10.776Z,9.54
2023-03-25T20:11:37.373Z,9.57
2023-03-25T20:14:06.389Z,9.60
2023-03-25T20:16:34.885Z,9.63
2023-03-25T20:19:02.396Z,9.67
2023-03-25T20:21:29.010Z,9.70
2023-03-25T20:23:55.774Z,9.68
2023-03-25T20:26:22.556Z,9.69
2023-03-25T20:28:49.456Z,9.70
2023-03-25T20:31:18.745Z,9.66
2023-03-25T20:33:46.373Z,9.64
2023-03-25T20:36:13.471Z,9.62
2023-03-25T20:38:47.423Z,9.61
2023-03-25T20:41:21.609Z,9.55
2023-03-25T20:43:48.173Z,9.54
2023-03-25T20:46:15.496Z,9.50
2023-03-25T20:48:42.363Z,9.44
2023-03-25T20:51:12.809Z,9.34
2023-03-25T20:53:41.757Z,9.26
2023-03-25T20:56:08.311Z,9.22
2023-03-25T20:58:34.876Z,9.20
2023-03-25T21:01:02.716Z,9.14
2023-03-25T21:03:30.035Z,9.11
2023-03-25T21:05:59.002Z,9.07
2023-03-25T21:08:30.325Z,9.02
2023-03-25T21:10:58.333Z,8.96
2023-03-25T21:13:31.513Z,8.94
2023-03-25T21:16:01.492Z,8.89
2023-03-25T21:18:29.102Z,8.87
2023-03-25T21:20:58.268Z,8.86
2023-03-25T21:23:31.942Z,8.83
2023-03-25T21:26:03.416Z,8.82
2023-03-25T21:28:31.994Z,8.82
2023-03-25T21:31:08.124Z,8.82
2023-03-25T21:33:39.282Z,8.81
2023-03-25T21:36:08.799Z,8.82
2023-03-25T21:38:36.498Z,8.82
2023-03-25T21:41:06.177Z,8.83
2023-03-25T21:43:34.460Z,8.91
2023-03-25T21:46:05.513Z,8.90
2023-03-25T21:48:34.394Z,8.92
2023-03-25T21:51:01.495Z,8.93
2023-03-25T21:53:32.573Z,8.96
2023-03-25T21:56:04.218Z,8.99
2023-03-25T21:58:32.940Z,9.04
2023-03-25T22:01:05.389Z,9.06
2023-03-25T22:03:37.179Z,9.08
2023-03-25T22:06:16.585Z,9.09
2023-03-25T22:08:43.381Z,9.10
2023-03-25T22:11:15.743Z,9.09
2023-03-25T22:13:43.373Z,9.13
2023-03-25T22:16:12.285Z,9.16
2023-03-25T22:18:39.912Z,9.17
2023-03-25T22:21:30.261Z,9.16
2023-03-25T22:24:00.306Z,9.13
2023-03-25T22:26:28.724Z,9.13
2023-03-25T22:28:57.028Z,9.09
2023-03-25T22:31:30.847Z,9.07
2023-03-25T22:34:03.183Z,9.05
2023-03-25T22:36:34.324Z,9.05
2023-03-25T22:39:02.829Z,9.03
2023-03-25T22:41:29.421Z,9.00
2023-03-25T22:43:56.404Z,8.99
2023-03-25T22:46:23.560Z,8.97
2023-03-25T22:48:50.574Z,8.96
2023-03-25T22:51:19.512Z,8.94
2023-03-25T22:53:46.267Z,8.89
2023-03-25T22:56:13.554Z,8.86
2023-03-25T22:58:40.846Z,8.83
2023-03-25T23:01:25.070Z,8.79
2023-03-25T23:03:53.770Z,8.76
2023-03-25T23:06:21.559Z,8.74
2023-03-25T23:08:48.957Z,8.69
2023-03-25T23:11:17.300Z,8.66
2023-03-25T23:13:46.741Z,8.63
2023-03-25T23:16:16.007Z,8.60
2023-03-25T23:18:42.871Z,8.56
2023-03-25T23:21:14.884Z,8.52
2023-03-25T23:23:52.217Z,8.48
2023-03-25T23:26:24.835Z,8.45
2023-03-25T23:28:53.014Z,8.40
2023-03-25T23:31:22.766Z,8.37
2023-03-25T23:33:51.097Z,8.31
2023-03-25T23:36:19.813Z,8.29
2023-03-25T23:38:46.934Z,8.27
2023-03-25T23:41:15.972Z,8.23
2023-03-25T23:43:43.440Z,8.19
2023-03-25T23:46:11.751Z,8.15
2023-03-25T23:48:42.498Z,8.13
2023-03-25T23:51:11.470Z,8.11
2023-03-25T23:53:39.472Z,8.07
2023-03-25T23:56:07.449Z,8.04
2023-03-25T23:58:34.949Z,8.02
